Hillemann, Arkansas
Current Conditions -  °F | °C
As of 1:56 AM on Tuesday 21 Oct 2014 (Local Time) from KM19 Reporting Station
Clear Clear  
Wind Chill: 57°   Ceiling: Unl
Heat Index: 57°   Visibility: 9mi
Dew Point: 56°   Wind: 3mph
Humidity: 97%   Direction: 310°NW
Pressure: 30.05"   Gusts: NA
Location:  35.2139°N, 91.1509°W
Report Text: KM19 210656Z AUTO 31003KT 9SM CLR 14/13 A3005 RMK AO2 T01380133 SLP172
Loading
Personal Weather Stations






























Interactive Weather Map
Tropical Storm Tracking
New forecast layout! Learn more

10-Day Weather Forecast

Advertisements
Track Severe Weather on mobile